Time,TemperatureF,DewpointF,PressureIn,WindDirection,WindDirectionDegrees,WindSpeedMPH,WindSpeedGustMPH,Humidity,HourlyPrecipIn,Conditions,Clouds,dailyrainin,SoftwareType,DateUTC
2013-12-02 00:00:00,56.0,50.0,30.01,North,0,0.0,1.0,81,-99.99,,,-99.99,,2013-12-02 06:00:00,
2013-12-02 00:41:00,56.0,50.0,30.01,North,0,0.0,1.0,81,-99.99,,,-99.99,,2013-12-02 06:41:00,
2013-12-02 00:52:00,56.0,50.0,30.01,North,0,0.0,1.0,81,-99.99,,,-99.99,,2013-12-02 06:52:00,
2013-12-02 01:00:00,57.0,49.0,30.00,North,10,2.0,2.0,75,-99.99,,,-99.99,,2013-12-02 07:00:00,
2013-12-02 01:41:00,57.0,49.0,30.00,North,10,2.0,2.0,75,-99.99,,,-99.99,,2013-12-02 07:41:00,
2013-12-02 01:52:00,57.0,49.0,30.00,North,10,2.0,2.0,75,-99.99,,,-99.99,,2013-12-02 07:52:00,
2013-12-02 02:00:00,55.0,51.0,29.98,NE,50,8.0,9.0,88,-99.99,,,-99.99,,2013-12-02 08:00:00,
2013-12-02 02:42:00,55.0,51.0,29.98,NE,50,8.0,9.0,88,-99.99,,,-99.99,,2013-12-02 08:42:00,
2013-12-02 02:52:00,55.0,51.0,29.98,NE,50,8.0,9.0,88,-99.99,,,-99.99,,2013-12-02 08:52:00,
2013-12-02 03:00:00,55.0,52.0,29.97,North,10,3.0,3.0,91,-99.99,,,-99.99,,2013-12-02 09:00:00,
2013-12-02 03:43:00,55.0,52.0,29.97,North,10,3.0,3.0,91,-99.99,,,-99.99,,2013-12-02 09:43:00,
2013-12-02 03:53:00,55.0,52.0,29.97,North,10,3.0,3.0,91,-99.99,,,-99.99,,2013-12-02 09:53:00,
2013-12-02 04:00:00,54.0,52.0,29.95,North,0,0.0,1.0,91,-99.99,,,-99.99,,2013-12-02 10:00:00,
2013-12-02 04:42:00,54.0,52.0,29.95,North,0,0.0,1.0,91,-99.99,,,-99.99,,2013-12-02 10:42:00,
2013-12-02 04:52:00,54.0,52.0,29.95,North,0,0.0,1.0,91,-99.99,,,-99.99,,2013-12-02 10:52:00,
2013-12-02 05:00:00,55.0,52.0,29.94,NW,320,5.0,7.0,89,-99.99,,,-99.99,,2013-12-02 11:00:00,
2013-12-02 05:42:00,55.0,52.0,29.94,NW,320,5.0,7.0,89,-99.99,,,-99.99,,2013-12-02 11:42:00,
2013-12-02 05:52:00,55.0,52.0,29.94,NW,320,5.0,7.0,89,-99.99,,,-99.99,,2013-12-02 11:52:00,
2013-12-02 06:00:00,55.0,52.0,29.94,North,0,0.0,1.0,89,-99.99,,,-99.99,,2013-12-02 12:00:00,
2013-12-02 06:42:00,55.0,52.0,29.94,North,0,0.0,1.0,89,-99.99,,,-99.99,,2013-12-02 12:42:00,
2013-12-02 06:52:00,55.0,52.0,29.94,North,0,0.0,1.0,89,-99.99,,,-99.99,,2013-12-02 12:52:00,
2013-12-02 07:00:00,55.0,52.0,29.94,East,90,2.0,2.0,87,-99.99,,,-99.99,,2013-12-02 13:00:00,
2013-12-02 07:41:00,55.0,52.0,29.94,East,90,2.0,2.0,87,-99.99,,,-99.99,,2013-12-02 13:41:00,
2013-12-02 07:52:00,55.0,52.0,29.94,East,90,2.0,2.0,87,-99.99,,,-99.99,,2013-12-02 13:52:00,
2013-12-02 08:00:00,56.0,53.0,29.94,North,0,0.0,1.0,90,-99.99,,,-99.99,,2013-12-02 14:00:00,
2013-12-02 08:42:00,56.0,53.0,29.94,North,0,0.0,1.0,90,-99.99,,,-99.99,,2013-12-02 14:42:00,
2013-12-02 08:52:00,56.0,53.0,29.94,North,0,0.0,1.0,90,-99.99,,,-99.99,,2013-12-02 14:52:00,
2013-12-02 09:00:00,56.0,53.0,29.94,East,80,2.0,2.0,88,-99.99,,,-99.99,,2013-12-02 15:00:00,
2013-12-02 09:43:00,56.0,53.0,29.94,East,80,2.0,2.0,88,-99.99,,,-99.99,,2013-12-02 15:43:00,
2013-12-02 09:53:00,56.0,53.0,29.94,East,80,2.0,2.0,88,-99.99,,,-99.99,,2013-12-02 15:53:00,
2013-12-02 10:00:00,57.0,52.0,29.93,East,90,2.0,2.0,83,-99.99,,,-99.99,,2013-12-02 16:00:00,
2013-12-02 10:42:00,57.0,52.0,29.93,East,90,2.0,2.0,83,-99.99,,,-99.99,,2013-12-02 16:42:00,
2013-12-02 10:53:00,57.0,52.0,29.93,East,90,2.0,2.0,83,-99.99,,,-99.99,,2013-12-02 16:53:00,
2013-12-02 11:00:00,59.0,54.0,29.91,SSE,150,5.0,5.0,82,-99.99,,,-99.99,,2013-12-02 17:00:00,
2013-12-02 11:42:00,59.0,54.0,29.91,SSE,150,5.0,5.0,82,-99.99,,,-99.99,,2013-12-02 17:42:00,
2013-12-02 11:52:00,59.0,54.0,29.91,SSE,150,5.0,5.0,82,-99.99,,,-99.99,,2013-12-02 17:52:00,
2013-12-02 12:00:00,59.0,54.0,29.88,SSE,160,6.0,6.0,82,-99.99,,,-99.99,,2013-12-02 18:00:00,
2013-12-02 12:42:00,59.0,54.0,29.88,SSE,160,6.0,6.0,82,-99.99,,,-99.99,,2013-12-02 18:42:00,
2013-12-02 12:52:00,59.0,54.0,29.88,SSE,160,6.0,6.0,82,-99.99,,,-99.99,,2013-12-02 18:52:00,
2013-12-02 13:00:00,60.0,54.0,29.85,SSE,150,6.0,6.0,82,-99.99,,,-99.99,,2013-12-02 19:00:00,
2013-12-02 13:42:00,60.0,54.0,29.85,SSE,150,6.0,6.0,82,-99.99,,,-99.99,,2013-12-02 19:42:00,
2013-12-02 13:51:00,60.0,54.0,29.85,SSE,150,6.0,6.0,82,-99.99,,,-99.99,,2013-12-02 19:51:00,
2013-12-02 14:00:00,62.0,54.0,29.83,South,180,6.0,7.0,75,-99.99,,,-99.99,,2013-12-02 20:00:00,
2013-12-02 14:42:00,62.0,54.0,29.83,South,180,6.0,7.0,75,-99.99,,,-99.99,,2013-12-02 20:42:00,
2013-12-02 14:52:00,62.0,54.0,29.83,South,180,6.0,7.0,75,-99.99,,,-99.99,,2013-12-02 20:52:00,
2013-12-02 15:00:00,62.0,56.0,29.83,SSE,160,5.0,6.0,82,-99.99,,,-99.99,,2013-12-02 21:00:00,
2013-12-02 15:43:00,62.0,56.0,29.83,SSE,160,5.0,6.0,82,-99.99,,,-99.99,,2013-12-02 21:43:00,
2013-12-02 15:53:00,62.0,56.0,29.83,SSE,160,5.0,6.0,82,-99.99,,,-99.99,,2013-12-02 21:53:00,
2013-12-02 16:00:00,62.0,57.0,29.83,South,170,5.0,7.0,85,-99.99,,,-99.99,,2013-12-02 22:00:00,
2013-12-02 16:42:00,62.0,57.0,29.83,South,170,5.0,7.0,85,-99.99,,,-99.99,,2013-12-02 22:42:00,
2013-12-02 16:53:00,62.0,57.0,29.83,South,170,5.0,7.0,85,-99.99,,,-99.99,,2013-12-02 22:53:00,
2013-12-02 17:00:00,62.0,59.0,29.81,SSE,150,7.0,7.0,90,-99.99,,,-99.99,,2013-12-02 23:00:00,
2013-12-02 17:42:00,62.0,59.0,29.81,SSE,150,7.0,7.0,90,-99.99,,,-99.99,,2013-12-02 23:42:00,
2013-12-02 17:53:00,62.0,59.0,29.81,SSE,150,7.0,7.0,90,-99.99,,,-99.99,,2013-12-02 23:53:00,
2013-12-02 18:00:00,63.0,57.0,29.82,South,170,5.0,6.0,82,-99.99,,,-99.99,,2013-12-03 00:00:00,
2013-12-02 18:41:00,63.0,57.0,29.82,South,170,5.0,6.0,82,-99.99,,,-99.99,,2013-12-03 00:41:00,
2013-12-02 18:52:00,63.0,57.0,29.82,South,170,5.0,6.0,82,-99.99,,,-99.99,,2013-12-03 00:52:00,
2013-12-02 19:00:00,64.0,60.0,29.83,SSE,160,7.0,7.0,85,-99.99,,,-99.99,,2013-12-03 01:00:00,
2013-12-02 19:42:00,64.0,60.0,29.83,SSE,160,7.0,7.0,85,-99.99,,,-99.99,,2013-12-03 01:42:00,
2013-12-02 19:52:00,64.0,60.0,29.83,SSE,160,7.0,7.0,85,-99.99,,,-99.99,,2013-12-03 01:52:00,
2013-12-02 20:00:00,63.0,60.0,29.82,SSE,160,8.0,8.0,89,-99.99,,,-99.99,,2013-12-03 02:00:00,
2013-12-02 20:42:00,63.0,60.0,29.82,SSE,160,8.0,8.0,89,-99.99,,,-99.99,,2013-12-03 02:42:00,
2013-12-02 20:52:00,63.0,60.0,29.82,SSE,160,8.0,8.0,89,-99.99,,,-99.99,,2013-12-03 02:52:00,
2013-12-02 21:00:00,63.0,61.0,29.82,South,180,6.0,8.0,90,-99.99,,,-99.99,,2013-12-03 03:00:00,
2013-12-02 21:43:00,63.0,61.0,29.82,South,180,6.0,8.0,90,-99.99,,,-99.99,,2013-12-03 03:43:00,
2013-12-02 21:53:00,63.0,61.0,29.82,South,180,6.0,8.0,90,-99.99,,,-99.99,,2013-12-03 03:53:00,
2013-12-02 22:00:00,64.0,62.0,29.84,South,190,6.0,8.0,92,-99.99,,,-99.99,,2013-12-03 04:00:00,
2013-12-02 22:42:00,64.0,62.0,29.84,South,190,6.0,8.0,92,-99.99,,,-99.99,,2013-12-03 04:42:00,
2013-12-02 22:52:00,64.0,62.0,29.84,South,190,6.0,8.0,92,-99.99,,,-99.99,,2013-12-03 04:52:00,
2013-12-02 23:00:00,63.0,62.0,29.84,SSW,200,2.0,5.0,93,-99.99,,,-99.99,,2013-12-03 05:00:00,
2013-12-02 23:42:00,63.0,62.0,29.84,SSW,200,2.0,5.0,93,-99.99,,,-99.99,,2013-12-03 05:42:00,
2013-12-02 23:53:00,63.0,62.0,29.84,SSW,200,2.0,5.0,93,-99.99,,,-99.99,,2013-12-03 05:53:00,